createdAt,value
2019-03-28T00:00:44.904Z,8.67
2019-03-28T00:03:13.332Z,9.33
2019-03-28T00:05:41.730Z,9.10
2019-03-28T00:08:12.533Z,9.67
2019-03-28T00:10:40.394Z,9.00
2019-03-28T00:13:08.793Z,8.70
2019-03-28T00:15:37.226Z,8.90
2019-03-28T00:18:05.881Z,8.80
2019-03-28T00:20:35.330Z,10.17
2019-03-28T00:23:08.169Z,8.93
2019-03-28T00:25:36.596Z,9.40
2019-03-28T00:28:04.999Z,10.23
2019-03-28T00:30:33.423Z,10.13
2019-03-28T00:33:01.829Z,10.43
2019-03-28T00:35:30.310Z,10.70
2019-03-28T00:37:58.712Z,9.70
2019-03-28T00:40:27.131Z,10.63
2019-03-28T00:42:55.624Z,10.30
2019-03-28T00:45:24.008Z,11.27
2019-03-28T00:47:52.437Z,10.60
2019-03-28T00:50:20.881Z,11.50
2019-03-28T00:52:49.297Z,10.40
2019-03-28T00:55:17.688Z,10.10
2019-03-28T00:57:46.108Z,10.37
2019-03-28T01:00:15.576Z,10.83
2019-03-28T01:02:43.980Z,10.50
2019-03-28T01:05:12.925Z,10.17
2019-03-28T01:07:41.377Z,11.73
2019-03-28T01:10:10.160Z,11.33
2019-03-28T01:12:38.680Z,9.60
2019-03-28T01:15:07.984Z,9.67
2019-03-28T01:17:36.407Z,11.10
2019-03-28T01:20:06.528Z,9.83
2019-03-28T01:22:34.960Z,10.30
2019-03-28T01:25:03.378Z,10.10
2019-03-28T01:27:31.809Z,10.37
2019-03-28T01:30:00.332Z,11.47
2019-03-28T01:32:28.722Z,11.30
2019-03-28T01:34:57.144Z,9.90
2019-03-28T01:37:25.540Z,12.00
2019-03-28T01:39:53.971Z,11.40
2019-03-28T01:42:22.369Z,11.97
2019-03-28T01:44:50.820Z,10.20
2019-03-28T01:47:19.234Z,10.90
2019-03-28T01:49:47.667Z,12.47
2019-03-28T01:52:16.082Z,11.67
2019-03-28T01:54:44.569Z,11.33
2019-03-28T01:57:13.127Z,12.20
2019-03-28T01:59:41.483Z,11.40
2019-03-28T02:02:09.891Z,10.80
2019-03-28T02:04:38.295Z,11.20
2019-03-28T02:07:06.760Z,11.80
2019-03-28T02:09:35.157Z,10.40
2019-03-28T02:12:03.603Z,10.70
2019-03-28T02:14:32.009Z,10.47
2019-03-28T02:17:00.414Z,11.33
2019-03-28T02:19:28.845Z,11.70
2019-03-28T02:21:57.235Z,12.90
2019-03-28T02:24:26.243Z,11.90
2019-03-28T02:26:54.853Z,11.23
2019-03-28T02:29:23.279Z,11.60
2019-03-28T02:31:51.681Z,11.97
2019-03-28T02:34:20.112Z,12.33
2019-03-28T02:36:48.581Z,11.93
2019-03-28T02:39:16.992Z,12.67
2019-03-28T02:41:45.411Z,11.57
2019-03-28T02:44:13.807Z,11.83
2019-03-28T02:46:42.234Z,11.10
2019-03-28T02:49:10.651Z,12.33
2019-03-28T02:51:39.056Z,10.70
2019-03-28T02:54:07.487Z,11.43
2019-03-28T02:56:35.907Z,11.80
2019-03-28T02:59:04.374Z,11.97
2019-03-28T03:01:32.792Z,11.77
2019-03-28T03:04:01.198Z,11.13
2019-03-28T03:06:29.681Z,11.77
2019-03-28T03:08:58.070Z,11.53
2019-03-28T03:11:26.489Z,12.13
2019-03-28T03:13:54.886Z,12.20
2019-03-28T03:16:23.287Z,12.50
2019-03-28T03:18:51.702Z,11.10
2019-03-28T03:21:20.126Z,12.07
2019-03-28T03:23:48.541Z,12.97
2019-03-28T03:26:16.961Z,10.43
2019-03-28T03:28:45.381Z,10.40
2019-03-28T03:31:20.279Z,11.57
2019-03-28T03:33:43.967Z,11.73
2019-03-28T03:36:12.401Z,11.33
2019-03-28T03:38:40.803Z,11.37
2019-03-28T03:41:09.292Z,11.23
2019-03-28T03:43:37.747Z,12.23
2019-03-28T03:46:06.223Z,12.17
2019-03-28T03:48:34.719Z,12.87
2019-03-28T03:51:03.110Z,10.97
2019-03-28T03:53:31.537Z,11.97
2019-03-28T03:55:59.944Z,12.23
2019-03-28T03:58:28.367Z,11.57
2019-03-28T04:00:56.771Z,11.50
2019-03-28T04:03:25.264Z,11.70
2019-03-28T04:05:53.676Z,11.93
2019-03-28T04:08:22.092Z,12.33
2019-03-28T04:10:50.488Z,13.47
2019-03-28T04:13:18.887Z,11.70
2019-03-28T04:15:47.472Z,11.40
2019-03-28T04:18:15.881Z,12.70
2019-03-28T04:20:44.302Z,13.37
2019-03-28T04:23:12.723Z,12.67
2019-03-28T04:25:41.111Z,13.00
2019-03-28T04:28:09.528Z,12.90
2019-03-28T04:30:37.925Z,13.00
2019-03-28T04:33:06.333Z,12.27
2019-03-28T04:35:34.807Z,13.57
2019-03-28T04:38:03.227Z,14.70
2019-03-28T04:40:31.622Z,13.53
2019-03-28T04:43:00.068Z,13.60
2019-03-28T04:45:28.429Z,13.20
2019-03-28T04:47:56.837Z,13.60
2019-03-28T04:50:25.261Z,13.90
2019-03-28T04:52:54.138Z,14.50
2019-03-28T04:55:22.535Z,14.13
2019-03-28T04:57:50.966Z,14.17
2019-03-28T05:00:19.700Z,12.90
2019-03-28T05:02:48.129Z,13.03
2019-03-28T05:05:16.572Z,13.07
2019-03-28T05:07:44.986Z,13.03
2019-03-28T05:10:13.524Z,12.30
2019-03-28T05:12:42.064Z,11.80
2019-03-28T05:15:11.221Z,12.47
2019-03-28T05:17:40.408Z,13.17
2019-03-28T05:20:09.363Z,12.03
2019-03-28T05:22:37.857Z,13.30
2019-03-28T05:25:07.438Z,13.20
2019-03-28T05:27:35.840Z,11.87
2019-03-28T05:30:11.298Z,12.87
2019-03-28T05:32:39.788Z,13.20
2019-03-28T05:35:08.347Z,14.27
2019-03-28T05:37:36.745Z,12.87
2019-03-28T05:40:07.101Z,13.07
2019-03-28T05:42:35.501Z,14.40
2019-03-28T05:45:07.455Z,12.60
2019-03-28T05:47:35.864Z,13.57
2019-03-28T05:50:06.312Z,13.27
2019-03-28T05:52:34.801Z,14.03
2019-03-28T05:55:05.338Z,12.60
2019-03-28T05:57:33.412Z,14.60
2019-03-28T06:00:01.841Z,16.70
2019-03-28T06:02:30.245Z,15.90
2019-03-28T06:04:58.662Z,16.53
2019-03-28T06:07:27.081Z,16.63
2019-03-28T06:09:55.483Z,16.83
2019-03-28T06:12:23.897Z,17.20
2019-03-28T06:14:52.321Z,16.20
2019-03-28T06:17:20.760Z,18.23
2019-03-28T06:19:49.245Z,19.20
2019-03-28T06:22:17.669Z,20.00
2019-03-28T06:24:46.132Z,19.80
2019-03-28T06:27:14.519Z,21.17
2019-03-28T06:29:42.946Z,23.43
2019-03-28T06:32:11.369Z,21.97
2019-03-28T06:34:39.815Z,20.60
2019-03-28T06:37:08.315Z,23.20
2019-03-28T06:39:36.734Z,22.40
2019-03-28T06:42:05.116Z,23.50
2019-03-28T06:44:33.529Z,24.27
2019-03-28T06:47:01.930Z,24.80
2019-03-28T06:49:30.361Z,23.03
2019-03-28T06:51:58.803Z,24.63
2019-03-28T06:54:27.184Z,25.20
2019-03-28T06:56:55.589Z,25.70
2019-03-28T06:59:36.226Z,24.87
2019-03-28T07:01:54.370Z,29.40
2019-03-28T07:04:22.779Z,26.17
2019-03-28T07:06:51.199Z,28.87
2019-03-28T07:09:19.600Z,26.53
2019-03-28T07:11:48.016Z,26.00
2019-03-28T07:14:16.490Z,27.40
2019-03-28T07:16:44.928Z,25.17
2019-03-28T07:19:13.405Z,27.03
2019-03-28T07:21:41.876Z,26.73
2019-03-28T07:24:10.429Z,25.87
2019-03-28T07:26:38.903Z,25.30
2019-03-28T07:29:07.356Z,28.80
2019-03-28T07:31:35.821Z,27.23
2019-03-28T07:34:04.268Z,27.73
2019-03-28T07:36:32.702Z,27.50
2019-03-28T07:39:02.014Z,28.77
2019-03-28T07:41:30.433Z,29.03
2019-03-28T07:43:58.883Z,29.27
2019-03-28T07:46:27.389Z,29.20
2019-03-28T07:48:55.778Z,28.50
2019-03-28T07:51:24.296Z,27.57
2019-03-28T07:53:52.791Z,29.37
2019-03-28T07:56:21.227Z,30.70
2019-03-28T07:58:49.737Z,27.37
2019-03-28T08:01:18.367Z,28.60
2019-03-28T08:03:46.778Z,25.37
2019-03-28T08:06:15.344Z,26.67
2019-03-28T08:08:44.279Z,29.20
2019-03-28T08:11:12.980Z,27.53
2019-03-28T08:13:41.470Z,25.80
2019-03-28T08:16:09.897Z,26.30
2019-03-28T08:18:38.323Z,27.00
2019-03-28T08:21:06.832Z,26.60
2019-03-28T08:23:35.591Z,25.70
2019-03-28T08:26:04.280Z,27.40
2019-03-28T08:28:32.725Z,27.07
2019-03-28T08:31:01.126Z,26.30
2019-03-28T08:33:29.715Z,27.03
2019-03-28T08:35:58.612Z,26.97
2019-03-28T08:38:27.551Z,27.30
2019-03-28T08:40:55.990Z,27.33
2019-03-28T08:43:24.412Z,25.00
2019-03-28T08:45:52.854Z,25.40
2019-03-28T08:48:21.327Z,26.60
2019-03-28T08:50:49.826Z,25.97
2019-03-28T08:53:18.297Z,26.80
2019-03-28T08:55:46.783Z,26.17
2019-03-28T08:58:15.157Z,24.50
2019-03-28T09:00:51.530Z,23.67
2019-03-28T09:03:13.882Z,24.23
2019-03-28T09:05:42.432Z,25.40
2019-03-28T09:08:10.940Z,27.70
2019-03-28T09:10:39.328Z,25.67
2019-03-28T09:13:07.870Z,26.93
2019-03-28T09:15:43.539Z,28.37
2019-03-28T09:18:06.618Z,28.67
2019-03-28T09:20:35.134Z,28.10
2019-03-28T09:23:03.651Z,27.50
2019-03-28T09:25:32.087Z,26.33
2019-03-28T09:28:00.504Z,27.57
2019-03-28T09:30:47.642Z,25.60
2019-03-28T09:33:05.530Z,27.00
2019-03-28T09:35:34.121Z,26.60
2019-03-28T09:38:02.665Z,26.00
2019-03-28T09:40:31.096Z,26.67
2019-03-28T09:42:59.672Z,24.90
2019-03-28T09:45:28.273Z,24.77
2019-03-28T09:47:56.775Z,24.63
2019-03-28T09:50:25.255Z,23.80
2019-03-28T09:52:54.170Z,22.40
2019-03-28T09:55:22.784Z,23.03
2019-03-28T09:57:51.206Z,22.30
2019-03-28T10:00:21.182Z,22.47
2019-03-28T10:02:49.609Z,21.87
2019-03-28T10:05:18.018Z,22.80
2019-03-28T10:07:46.444Z,25.40
2019-03-28T10:10:15.024Z,28.53
2019-03-28T10:12:44.234Z,22.70
2019-03-28T10:15:13.087Z,21.37
2019-03-28T10:17:42.550Z,22.87
2019-03-28T10:20:11.201Z,21.30
2019-03-28T10:22:39.705Z,22.50
2019-03-28T10:25:12.283Z,21.53
2019-03-28T10:27:39.030Z,20.60
2019-03-28T10:30:09.693Z,22.17
2019-03-28T10:32:38.221Z,23.10
2019-03-28T10:35:07.262Z,22.93
2019-03-28T10:37:35.911Z,22.30
2019-03-28T10:40:06.985Z,21.77
2019-03-28T10:42:35.470Z,22.03
2019-03-28T10:45:05.331Z,23.07
2019-03-28T10:47:33.746Z,22.83
2019-03-28T10:50:04.249Z,23.00
2019-03-28T10:52:32.392Z,24.90
2019-03-28T10:55:00.796Z,22.67
2019-03-28T10:57:30.351Z,23.20
2019-03-28T10:59:59.438Z,22.37
2019-03-28T11:02:28.976Z,21.93
2019-03-28T11:04:57.572Z,21.00
2019-03-28T11:07:25.975Z,21.40
2019-03-28T11:09:54.417Z,22.43
2019-03-28T11:12:22.852Z,21.53
2019-03-28T11:14:51.264Z,22.00
2019-03-28T11:17:19.685Z,20.80
2019-03-28T11:19:48.086Z,20.67
2019-03-28T11:22:16.518Z,21.33
2019-03-28T11:24:46.496Z,22.07
2019-03-28T11:27:15.098Z,21.17
2019-03-28T11:29:43.501Z,21.40
2019-03-28T11:32:11.937Z,20.93
2019-03-28T11:34:40.902Z,24.37
2019-03-28T11:37:19.971Z,23.73
2019-03-28T11:39:39.835Z,24.63
2019-03-28T11:42:08.348Z,22.80
2019-03-28T11:44:36.735Z,22.60
2019-03-28T11:47:05.224Z,23.13
2019-03-28T11:49:33.717Z,21.37
2019-03-28T11:52:02.254Z,22.00
2019-03-28T11:54:30.698Z,23.00
2019-03-28T11:56:59.123Z,21.40
2019-03-28T11:59:27.544Z,22.87
2019-03-28T12:02:00.574Z,22.80
2019-03-28T12:04:26.200Z,21.17
2019-03-28T12:06:54.620Z,24.67
2019-03-28T12:09:23.046Z,23.70
2019-03-28T12:11:53.058Z,23.70
2019-03-28T12:14:21.719Z,22.00
2019-03-28T12:16:50.133Z,22.27
2019-03-28T12:19:18.627Z,24.10
2019-03-28T12:21:47.009Z,26.37
2019-03-28T12:24:15.497Z,26.67
2019-03-28T12:26:44.062Z,26.33
2019-03-28T12:29:12.587Z,23.47
2019-03-28T12:31:41.064Z,24.50
2019-03-28T12:34:09.543Z,21.57
2019-03-28T12:36:38.002Z,23.67
2019-03-28T12:39:06.985Z,23.77
2019-03-28T12:41:35.426Z,24.40
2019-03-28T12:44:03.925Z,23.73
2019-03-28T12:46:32.319Z,23.43
2019-03-28T12:49:00.778Z,21.77
2019-03-28T12:51:29.183Z,19.20
2019-03-28T12:53:57.626Z,19.13
2019-03-28T12:56:26.467Z,15.80
2019-03-28T12:58:55.061Z,16.50
2019-03-28T13:01:24.509Z,15.03
2019-03-28T13:03:52.993Z,16.30
2019-03-28T13:06:21.397Z,15.37
2019-03-28T13:08:49.810Z,17.23
2019-03-28T13:11:18.272Z,18.37
2019-03-28T13:13:46.698Z,17.80
2019-03-28T13:16:15.146Z,17.70
2019-03-28T13:18:43.582Z,15.40
2019-03-28T13:21:13.852Z,16.70
2019-03-28T13:23:42.158Z,16.23
2019-03-28T13:26:10.653Z,16.97
2019-03-28T13:28:39.080Z,17.10
2019-03-28T13:31:07.574Z,16.20
2019-03-28T13:33:36.000Z,17.07
2019-03-28T13:36:04.403Z,17.87
2019-03-28T13:38:32.829Z,16.57
2019-03-28T13:41:01.239Z,17.83
2019-03-28T13:43:30.670Z,17.13
2019-03-28T13:45:59.123Z,19.03
2019-03-28T13:48:27.531Z,20.80
2019-03-28T13:50:55.977Z,23.50
2019-03-28T13:53:38.009Z,28.07
2019-03-28T13:55:54.664Z,29.47
2019-03-28T13:58:23.067Z,29.80
2019-03-28T14:00:54.415Z,28.67
2019-03-28T14:03:21.759Z,29.30
2019-03-28T14:05:50.254Z,28.83
2019-03-28T14:08:18.670Z,30.50
2019-03-28T14:10:47.176Z,33.40
2019-03-28T14:13:15.578Z,27.93
2019-03-28T14:15:44.005Z,29.10
2019-03-28T14:18:12.449Z,30.90
2019-03-28T14:20:40.850Z,31.43
2019-03-28T14:23:09.264Z,29.10
2019-03-28T14:25:37.703Z,30.03
2019-03-28T14:28:06.235Z,27.80
2019-03-28T14:30:34.630Z,28.50
2019-03-28T14:33:11.056Z,26.93
2019-03-28T14:35:33.190Z,26.37
2019-03-28T14:38:01.587Z,26.90
2019-03-28T14:40:30.004Z,27.53
2019-03-28T14:42:58.479Z,26.80
2019-03-28T14:45:26.971Z,26.50
2019-03-28T14:47:55.399Z,28.00
2019-03-28T14:50:35.623Z,28.50
2019-03-28T14:53:04.581Z,27.97
2019-03-28T14:55:35.216Z,28.23
2019-03-28T14:58:09.460Z,27.87
2019-03-28T15:00:48.857Z,28.90
2019-03-28T15:03:26.345Z,27.63
2019-03-28T15:05:48.090Z,30.03
2019-03-28T15:08:16.572Z,29.27
2019-03-28T15:10:45.117Z,30.50
2019-03-28T15:13:13.648Z,31.33
2019-03-28T15:15:42.099Z,29.87
2019-03-28T15:18:10.546Z,29.47
2019-03-28T15:20:38.996Z,32.67
2019-03-28T15:23:07.502Z,31.80
2019-03-28T15:25:36.027Z,31.40
2019-03-28T15:28:04.537Z,31.90
2019-03-28T15:30:32.956Z,36.03
2019-03-28T15:33:01.401Z,31.83
2019-03-28T15:35:29.830Z,31.10
2019-03-28T15:37:58.263Z,33.07
2019-03-28T15:40:26.871Z,32.90
2019-03-28T15:42:55.388Z,31.23
2019-03-28T15:45:24.023Z,34.47
2019-03-28T15:47:52.447Z,34.40
2019-03-28T15:50:20.906Z,31.90
2019-03-28T15:52:49.411Z,34.23
2019-03-28T15:55:17.903Z,31.73
2019-03-28T15:57:46.401Z,31.47
2019-03-28T16:00:15.381Z,31.20
2019-03-28T16:02:43.806Z,32.07
2019-03-28T16:05:12.303Z,31.67
2019-03-28T16:07:41.095Z,30.77
2019-03-28T16:10:10.155Z,31.83
2019-03-28T16:12:38.650Z,31.23
2019-03-28T16:15:08.124Z,32.27
2019-03-28T16:17:36.608Z,32.03
2019-03-28T16:20:07.196Z,31.37
2019-03-28T16:22:35.642Z,31.97
2019-03-28T16:25:05.627Z,32.23
2019-03-28T16:27:34.007Z,33.70
2019-03-28T16:30:02.542Z,33.50
2019-03-28T16:32:30.962Z,34.90
2019-03-28T16:34:59.378Z,34.20
2019-03-28T16:37:27.964Z,34.17
2019-03-28T16:39:56.513Z,35.60
2019-03-28T16:42:24.948Z,34.40
2019-03-28T16:44:53.358Z,34.20
2019-03-28T16:47:21.760Z,37.90
2019-03-28T16:49:50.323Z,36.70
2019-03-28T16:52:18.741Z,36.57
2019-03-28T16:54:47.212Z,36.13
2019-03-28T16:57:15.626Z,38.07
2019-03-28T16:59:44.048Z,38.43
2019-03-28T17:02:12.548Z,38.50
2019-03-28T17:04:40.980Z,36.97
2019-03-28T17:07:09.956Z,39.30
2019-03-28T17:09:39.265Z,39.17
2019-03-28T17:12:08.150Z,37.83
2019-03-28T17:14:36.719Z,51.30
2019-03-28T17:17:05.235Z,42.80
2019-03-28T17:19:33.659Z,39.00
2019-03-28T17:22:02.173Z,37.90
2019-03-28T17:24:30.688Z,36.50
2019-03-28T17:26:59.187Z,37.67
2019-03-28T17:29:27.612Z,51.33
2019-03-28T17:31:56.043Z,51.87
2019-03-28T17:34:34.655Z,42.83
2019-03-28T17:36:54.597Z,40.00
2019-03-28T17:39:23.032Z,37.17
2019-03-28T17:41:51.529Z,38.90
2019-03-28T17:44:19.972Z,37.77
2019-03-28T17:46:48.395Z,38.10
2019-03-28T17:49:16.807Z,34.43
2019-03-28T17:51:45.337Z,42.00
2019-03-28T17:54:13.757Z,36.30
2019-03-28T17:56:42.263Z,34.67
2019-03-28T17:59:10.770Z,35.07
2019-03-28T18:01:39.211Z,36.70
2019-03-28T18:04:07.672Z,36.03
2019-03-28T18:06:36.191Z,38.20
2019-03-28T18:09:07.048Z,34.63
2019-03-28T18:11:35.481Z,36.83
2019-03-28T18:14:04.561Z,35.20
2019-03-28T18:16:34.106Z,43.50
2019-03-28T18:19:02.563Z,38.20
2019-03-28T18:21:30.982Z,38.30
2019-03-28T18:23:59.418Z,36.33
2019-03-28T18:26:27.982Z,37.93
2019-03-28T18:28:56.390Z,39.40
2019-03-28T18:31:24.819Z,40.07
2019-03-28T18:33:53.252Z,37.10
2019-03-28T18:36:21.734Z,39.70
2019-03-28T18:38:52.483Z,37.00
2019-03-28T18:41:20.327Z,38.97
2019-03-28T18:43:49.746Z,38.10
2019-03-28T18:46:18.448Z,38.60
2019-03-28T18:48:46.978Z,37.47
2019-03-28T18:51:15.463Z,39.70
2019-03-28T18:53:43.871Z,37.80
2019-03-28T18:56:12.385Z,38.40
2019-03-28T18:58:40.810Z,37.80
2019-03-28T19:01:09.347Z,38.07
2019-03-28T19:03:37.806Z,37.87
2019-03-28T19:06:06.372Z,37.60
2019-03-28T19:08:34.867Z,37.77
2019-03-28T19:11:04.006Z,37.30
2019-03-28T19:13:32.673Z,38.43
2019-03-28T19:16:01.296Z,37.50
2019-03-28T19:18:29.738Z,37.33
2019-03-28T19:20:58.149Z,37.30
2019-03-28T19:23:26.613Z,36.80
2019-03-28T19:25:55.087Z,37.90
2019-03-28T19:28:29.243Z,38.73
2019-03-28T19:30:53.693Z,36.60
2019-03-28T19:33:22.128Z,36.73
2019-03-28T19:35:51.282Z,38.50
2019-03-28T19:38:19.806Z,37.13
2019-03-28T19:40:48.359Z,37.73
2019-03-28T19:43:20.947Z,40.37
2019-03-28T19:45:47.280Z,39.43
2019-03-28T19:48:15.725Z,36.53
2019-03-28T19:50:44.151Z,37.43
2019-03-28T19:53:12.564Z,36.40
2019-03-28T19:55:41.007Z,37.47
2019-03-28T19:58:09.481Z,40.20
2019-03-28T20:00:37.969Z,39.57
2019-03-28T20:03:06.470Z,38.17
2019-03-28T20:05:46.735Z,36.50
2019-03-28T20:08:15.422Z,40.47
2019-03-28T20:10:35.546Z,37.93
2019-03-28T20:13:05.417Z,39.70
2019-03-28T20:15:34.199Z,41.10
2019-03-28T20:18:02.708Z,39.93
2019-03-28T20:20:31.218Z,40.97
2019-03-28T20:22:59.724Z,38.83
2019-03-28T20:25:28.316Z,39.03
2019-03-28T20:27:56.772Z,40.47
2019-03-28T20:30:25.323Z,41.70
2019-03-28T20:32:53.834Z,41.77
2019-03-28T20:35:22.354Z,38.10
2019-03-28T20:37:50.817Z,39.97
2019-03-28T20:40:20.061Z,39.90
2019-03-28T20:42:48.543Z,38.60
2019-03-28T20:45:18.538Z,39.83
2019-03-28T20:47:46.973Z,39.20
2019-03-28T20:50:17.215Z,39.57
2019-03-28T20:52:45.726Z,40.43
2019-03-28T20:55:14.292Z,40.17
2019-03-28T20:57:42.728Z,38.30
2019-03-28T21:00:12.912Z,38.80
2019-03-28T21:02:41.738Z,41.07
2019-03-28T21:05:10.704Z,39.30
2019-03-28T21:07:39.279Z,39.07
2019-03-28T21:10:09.804Z,39.77
2019-03-28T21:12:38.221Z,39.10
2019-03-28T21:15:08.103Z,39.27
2019-03-28T21:17:36.554Z,38.70
2019-03-28T21:20:06.862Z,40.03
2019-03-28T21:22:35.254Z,38.63
2019-03-28T21:25:04.899Z,39.00
2019-03-28T21:27:33.369Z,40.27
2019-03-28T21:30:01.736Z,39.30
2019-03-28T21:32:30.178Z,40.57
2019-03-28T21:34:58.649Z,38.67
2019-03-28T21:37:27.084Z,38.47
2019-03-28T21:39:55.477Z,40.07
2019-03-28T21:42:23.962Z,36.83
2019-03-28T21:44:52.415Z,37.13
2019-03-28T21:47:20.861Z,37.70
2019-03-28T21:49:49.388Z,38.53
2019-03-28T21:52:17.817Z,36.20
2019-03-28T21:54:46.233Z,35.47
2019-03-28T21:57:14.882Z,38.60
2019-03-28T21:59:43.290Z,39.70
2019-03-28T22:02:11.742Z,38.27
2019-03-28T22:04:40.157Z,37.97
2019-03-28T22:07:08.594Z,39.77
2019-03-28T22:09:39.614Z,37.00
2019-03-28T22:12:07.222Z,37.70
2019-03-28T22:14:35.630Z,38.60
2019-03-28T22:17:04.042Z,38.20
2019-03-28T22:19:32.461Z,38.50
2019-03-28T22:22:01.949Z,37.97
2019-03-28T22:24:30.789Z,37.97
2019-03-28T22:26:59.223Z,37.73
2019-03-28T22:29:27.711Z,37.20
2019-03-28T22:31:56.809Z,35.47
2019-03-28T22:34:25.480Z,37.43
2019-03-28T22:36:57.561Z,38.93
2019-03-28T22:39:24.013Z,41.43
2019-03-28T22:41:52.427Z,38.27
2019-03-28T22:44:20.893Z,36.67
2019-03-28T22:46:49.311Z,36.33
2019-03-28T22:49:17.750Z,38.20
2019-03-28T22:51:46.172Z,36.90
2019-03-28T22:54:14.587Z,35.80
2019-03-28T22:56:43.090Z,40.17
2019-03-28T22:59:11.496Z,36.23
2019-03-28T23:01:39.966Z,36.40
2019-03-28T23:04:08.474Z,38.33
2019-03-28T23:06:36.897Z,37.00
2019-03-28T23:09:06.849Z,38.00
2019-03-28T23:11:35.296Z,37.40
2019-03-28T23:14:03.848Z,38.53
2019-03-28T23:16:32.256Z,37.40
2019-03-28T23:19:00.838Z,39.20
2019-03-28T23:21:29.249Z,38.27
2019-03-28T23:23:57.654Z,38.53
2019-03-28T23:26:26.085Z,37.70
2019-03-28T23:28:54.482Z,36.47
2019-03-28T23:31:22.897Z,38.90
2019-03-28T23:33:51.315Z,35.67
2019-03-28T23:36:19.727Z,38.20
2019-03-28T23:38:48.134Z,36.23
2019-03-28T23:41:16.553Z,35.20
2019-03-28T23:43:45.034Z,38.60
2019-03-28T23:46:13.429Z,38.40
2019-03-28T23:48:41.851Z,37.70
2019-03-28T23:51:10.280Z,37.23
2019-03-28T23:53:39.260Z,37.73
2019-03-28T23:56:07.681Z,37.80
2019-03-28T23:58:36.549Z,38.20
